createdAt,value
2022-12-11T00:04:14.582Z,21.42
2022-12-11T00:09:15.364Z,21.75
2022-12-11T00:14:17.534Z,21.70
2022-12-11T00:19:18.445Z,21.05
2022-12-11T00:24:20.282Z,21.92
2022-12-11T00:29:22.434Z,20.48
2022-12-11T00:34:24.391Z,20.30
2022-12-11T00:39:25.207Z,19.95
2022-12-11T00:44:27.347Z,20.63
2022-12-11T00:49:28.223Z,22.30
2022-12-11T00:54:29.028Z,21.77
2022-12-11T00:59:31.171Z,21.15
2022-12-11T01:04:32.002Z,20.92
2022-12-11T01:09:52.425Z,21.08
2022-12-11T01:14:54.622Z,20.77
2022-12-11T01:19:56.181Z,19.58
2022-12-11T01:24:56.996Z,20.98
2022-12-11T01:29:59.206Z,20.45
2022-12-11T01:35:00.003Z,19.30
2022-12-11T01:40:01.591Z,20.63
2022-12-11T01:45:29.223Z,20.08
2022-12-11T01:50:32.615Z,19.45
2022-12-11T01:55:34.328Z,20.40
2022-12-11T02:00:36.542Z,20.38
2022-12-11T02:05:38.023Z,19.23
2022-12-11T02:10:55.499Z,20.52
2022-12-11T02:16:06.439Z,19.75
2022-12-11T02:21:14.324Z,19.75
2022-12-11T02:26:33.087Z,18.92
2022-12-11T02:31:39.766Z,18.40
2022-12-11T02:36:44.940Z,17.38
2022-12-11T02:41:49.860Z,18.13
2022-12-11T02:46:53.421Z,18.40
2022-12-11T02:51:55.751Z,15.98
2022-12-11T02:57:04.768Z,16.88
2022-12-11T03:02:07.622Z,17.13
2022-12-11T03:07:13.117Z,16.50
2022-12-11T03:12:19.225Z,16.23
2022-12-11T03:17:23.918Z,16.65
2022-12-11T03:22:33.713Z,14.98
2022-12-11T03:27:39.401Z,16.30
2022-12-11T03:32:47.643Z,17.17
2022-12-11T03:37:52.292Z,16.70
2022-12-11T03:42:57.571Z,16.60
2022-12-11T03:48:03.566Z,18.13
2022-12-11T03:53:05.910Z,17.67
2022-12-11T03:58:06.854Z,17.02
2022-12-11T04:03:15.894Z,17.17
2022-12-11T04:08:17.314Z,17.40
2022-12-11T04:13:18.117Z,16.60
2022-12-11T04:18:37.895Z,16.73
2022-12-11T04:23:56.602Z,15.85
2022-12-11T04:28:57.354Z,16.10
2022-12-11T04:33:59.579Z,16.20
2022-12-11T04:39:00.453Z,16.38
2022-12-11T04:44:01.400Z,15.82
2022-12-11T04:49:03.604Z,13.57
2022-12-11T04:54:04.527Z,12.00
2022-12-11T04:59:05.335Z,12.43
2022-12-11T05:04:07.859Z,11.65
2022-12-11T05:09:12.414Z,12.20
2022-12-11T05:14:13.500Z,13.30
2022-12-11T05:19:15.706Z,14.68
2022-12-11T05:24:16.491Z,14.55
2022-12-11T05:29:17.271Z,16.02
2022-12-11T05:34:19.519Z,17.15
2022-12-11T05:39:20.702Z,17.05
2022-12-11T05:44:21.529Z,15.77
2022-12-11T05:49:29.120Z,17.40
2022-12-11T05:54:31.714Z,17.23
2022-12-11T05:59:32.548Z,16.67
2022-12-11T06:04:34.901Z,16.92
2022-12-11T06:09:35.762Z,16.15
2022-12-11T06:14:36.531Z,14.13
2022-12-11T06:19:38.841Z,14.13
2022-12-11T06:24:39.764Z,12.27
2022-12-11T06:29:40.891Z,14.18
2022-12-11T06:34:44.527Z,16.70
2022-12-11T06:39:45.496Z,13.80
2022-12-11T06:44:46.597Z,12.73
2022-12-11T06:49:48.750Z,13.23
2022-12-11T06:54:49.846Z,12.95
2022-12-11T06:59:50.871Z,12.00
2022-12-11T07:04:55.274Z,13.02
2022-12-11T07:09:56.304Z,12.10
2022-12-11T07:14:57.141Z,15.48
2022-12-11T07:19:59.482Z,12.40
2022-12-11T07:25:00.448Z,11.23
2022-12-11T07:30:01.364Z,12.27
2022-12-11T07:35:03.790Z,11.57
2022-12-11T07:40:05.055Z,11.75
2022-12-11T07:45:07.208Z,11.57
2022-12-11T07:50:10.230Z,10.82
2022-12-11T07:55:11.498Z,11.50
2022-12-11T08:00:13.162Z,12.27
2022-12-11T08:05:15.298Z,11.20
2022-12-11T08:10:16.127Z,12.23
2022-12-11T08:15:16.995Z,11.35
2022-12-11T08:20:19.204Z,10.82
2022-12-11T08:25:20.014Z,11.85
2022-12-11T08:30:20.828Z,11.73
2022-12-11T08:35:22.943Z,10.68
2022-12-11T08:40:23.773Z,12.30
2022-12-11T08:45:24.632Z,10.95
2022-12-11T08:50:26.953Z,11.55
2022-12-11T08:55:27.777Z,10.48
2022-12-11T09:00:28.720Z,13.10
2022-12-11T09:05:31.247Z,10.82
2022-12-11T09:10:32.029Z,11.15
2022-12-11T09:15:32.882Z,11.77
2022-12-11T09:20:35.273Z,11.45
2022-12-11T09:25:36.092Z,11.68
2022-12-11T09:30:36.967Z,11.07
2022-12-11T09:35:39.425Z,9.32
2022-12-11T09:40:43.917Z,11.85
2022-12-11T09:45:44.765Z,9.75
2022-12-11T09:50:48.895Z,10.35
2022-12-11T09:55:56.096Z,10.90
2022-12-11T10:01:00.808Z,10.27
2022-12-11T10:06:13.034Z,11.82
2022-12-11T10:11:35.819Z,11.15
2022-12-11T10:16:40.244Z,10.90
2022-12-11T10:21:44.129Z,10.85
2022-12-11T10:26:46.377Z,11.27
2022-12-11T10:31:54.612Z,10.93
2022-12-11T10:37:00.398Z,11.00
2022-12-11T10:42:04.820Z,10.63
2022-12-11T10:47:08.321Z,10.35
2022-12-11T10:52:13.991Z,10.32
2022-12-11T10:57:16.316Z,9.63
2022-12-11T11:02:24.166Z,10.43
2022-12-11T11:07:27.688Z,9.50
2022-12-11T11:12:29.119Z,9.63
2022-12-11T11:17:35.123Z,8.68
2022-12-11T11:22:42.455Z,8.60
2022-12-11T11:27:46.835Z,9.35
2022-12-11T11:32:47.693Z,9.57
2022-12-11T11:37:57.875Z,10.80
2022-12-11T11:43:14.124Z,9.85
2022-12-11T11:48:29.627Z,10.60
2022-12-11T11:53:37.421Z,9.68
2022-12-11T11:58:42.832Z,12.02
2022-12-11T12:03:43.708Z,10.82
2022-12-11T12:08:55.825Z,11.50
2022-12-11T12:14:22.749Z,12.07
2022-12-11T12:19:44.393Z,11.55
2022-12-11T12:24:57.824Z,12.15
2022-12-11T12:30:04.917Z,11.25
2022-12-11T12:35:17.466Z,12.10
2022-12-11T12:40:29.466Z,11.73
2022-12-11T12:45:37.329Z,11.43
2022-12-11T12:50:41.786Z,11.82
2022-12-11T12:55:45.809Z,11.15
2022-12-11T13:00:46.753Z,10.63
2022-12-11T13:05:59.150Z,10.90
2022-12-11T13:11:04.509Z,12.00
2022-12-11T13:16:24.682Z,11.73
2022-12-11T13:21:29.512Z,11.75
2022-12-11T13:26:34.353Z,12.15
2022-12-11T13:31:39.742Z,10.60
2022-12-11T13:36:42.114Z,11.38
2022-12-11T13:41:47.779Z,11.27
2022-12-11T13:46:49.755Z,10.52
2022-12-11T13:51:56.237Z,11.00
2022-12-11T13:57:01.628Z,11.15
2022-12-11T14:02:07.328Z,10.77
2022-12-11T14:07:10.048Z,10.38
2022-12-11T14:12:18.621Z,11.50
2022-12-11T14:17:26.868Z,12.40
2022-12-11T14:22:30.050Z,12.45
2022-12-11T14:27:32.261Z,12.93
2022-12-11T14:32:37.108Z,13.30
2022-12-11T14:37:38.376Z,12.82
2022-12-11T14:42:45.832Z,13.23
2022-12-11T14:47:46.799Z,14.75
2022-12-11T14:52:51.966Z,13.45
2022-12-11T14:57:57.619Z,12.90
2022-12-11T15:03:01.291Z,13.23
2022-12-11T15:08:04.213Z,11.60
2022-12-11T15:13:07.241Z,13.73
2022-12-11T15:18:15.231Z,12.90
2022-12-11T15:23:18.764Z,12.85
2022-12-11T15:28:33.263Z,12.10
2022-12-11T15:33:34.857Z,11.98
2022-12-11T15:38:40.761Z,11.68
2022-12-11T15:43:43.704Z,13.30
2022-12-11T15:48:44.579Z,13.40
2022-12-11T15:53:45.429Z,12.25
2022-12-11T15:58:49.379Z,13.25
2022-12-11T16:03:51.374Z,14.50
2022-12-11T16:08:52.183Z,13.90
2022-12-11T16:13:55.402Z,12.00
2022-12-11T16:18:56.231Z,14.00
2022-12-11T16:24:00.258Z,14.30
2022-12-11T16:29:02.821Z,14.18
2022-12-11T16:34:04.143Z,14.07
2022-12-11T16:39:05.100Z,13.75
2022-12-11T16:44:07.923Z,13.70
2022-12-11T16:49:08.801Z,14.45
2022-12-11T16:54:10.003Z,14.15
2022-12-11T16:59:12.949Z,14.68
2022-12-11T17:04:13.937Z,14.35
2022-12-11T17:09:14.852Z,15.35
2022-12-11T17:14:17.144Z,14.52
2022-12-11T17:19:18.677Z,13.55
2022-12-11T17:24:19.603Z,15.00
2022-12-11T17:29:22.059Z,13.57
2022-12-11T17:34:22.862Z,15.35
2022-12-11T17:39:24.800Z,15.25
2022-12-11T17:44:30.468Z,14.45
2022-12-11T17:49:31.382Z,13.43
2022-12-11T17:54:32.232Z,13.55
2022-12-11T17:59:34.441Z,14.35
2022-12-11T18:04:35.367Z,13.95
2022-12-11T18:09:36.164Z,15.07
2022-12-11T18:14:39.073Z,14.32
2022-12-11T18:19:45.741Z,14.70
2022-12-11T18:24:47.097Z,18.70
2022-12-11T18:29:49.257Z,14.35
2022-12-11T18:34:50.167Z,15.15
2022-12-11T18:39:51.117Z,14.75
2022-12-11T18:44:53.280Z,15.25
2022-12-11T18:49:54.503Z,15.05
2022-12-11T18:54:55.391Z,15.98
2022-12-11T19:00:02.351Z,15.55
2022-12-11T19:05:05.757Z,14.70
2022-12-11T19:10:08.551Z,15.55
2022-12-11T19:15:12.281Z,14.95
2022-12-11T19:20:40.472Z,14.68
2022-12-11T19:25:34.902Z,16.45
2022-12-11T19:30:37.535Z,15.95
2022-12-11T19:35:39.568Z,14.05
2022-12-11T19:40:41.611Z,14.95
2022-12-11T19:45:45.824Z,15.40
2022-12-11T19:50:46.969Z,15.38
2022-12-11T19:55:50.752Z,15.30
2022-12-11T20:00:53.052Z,16.45
2022-12-11T20:06:01.486Z,14.75
2022-12-11T20:11:06.055Z,16.75
2022-12-11T20:16:12.811Z,15.13
2022-12-11T20:21:15.586Z,16.90
2022-12-11T20:26:18.761Z,15.57
2022-12-11T20:31:23.277Z,16.02
2022-12-11T20:36:25.394Z,15.65
2022-12-11T20:41:27.568Z,16.40
2022-12-11T20:46:29.757Z,17.17
2022-12-11T20:51:32.579Z,16.15
2022-12-11T20:56:33.424Z,16.27
2022-12-11T21:01:35.914Z,15.95
2022-12-11T21:06:38.782Z,16.05
2022-12-11T21:11:39.727Z,16.33
2022-12-11T21:16:42.309Z,16.20
2022-12-11T21:21:45.202Z,15.75
2022-12-11T21:26:46.639Z,16.48
2022-12-11T21:31:49.181Z,14.68
2022-12-11T21:36:55.033Z,16.08
2022-12-11T21:42:00.905Z,15.68
2022-12-11T21:47:03.316Z,16.92
2022-12-11T21:52:04.696Z,18.75
2022-12-11T21:57:06.247Z,16.77
2022-12-11T22:02:08.887Z,14.98
2022-12-11T22:07:09.727Z,21.20
2022-12-11T22:12:12.551Z,16.60
2022-12-11T22:17:14.725Z,21.53
2022-12-11T22:22:16.046Z,16.27
2022-12-11T22:27:21.985Z,15.50
2022-12-11T22:32:26.563Z,15.18
2022-12-11T22:37:27.427Z,16.58
2022-12-11T22:42:28.516Z,16.00
2022-12-11T22:47:30.735Z,15.98
2022-12-11T22:52:31.683Z,15.73
2022-12-11T22:57:36.902Z,16.05
2022-12-11T23:02:39.577Z,18.48
2022-12-11T23:07:40.766Z,17.17
2022-12-11T23:12:41.820Z,18.30
2022-12-11T23:17:44.010Z,17.67
2022-12-11T23:22:44.809Z,17.00
2022-12-11T23:27:45.852Z,17.98
2022-12-11T23:32:48.005Z,16.83
2022-12-11T23:37:48.918Z,17.05
2022-12-11T23:42:49.709Z,18.48
2022-12-11T23:47:53.094Z,17.15
2022-12-11T23:52:53.908Z,17.63
2022-12-11T23:57:54.934Z,17.65
